createdAt,value
2018-04-28T00:00:22.089Z,3.37
2018-04-28T00:02:51.072Z,2.90
2018-04-28T00:05:18.100Z,3.10
2018-04-28T00:07:45.699Z,3.67
2018-04-28T00:10:13.540Z,2.63
2018-04-28T00:12:40.491Z,2.50
2018-04-28T00:15:07.457Z,2.50
2018-04-28T00:17:38.885Z,2.93
2018-04-28T00:20:08.180Z,2.33
2018-04-28T00:22:37.024Z,3.07
2018-04-28T00:25:16.876Z,2.70
2018-04-28T00:27:56.953Z,2.80
2018-04-28T00:30:37.633Z,3.03
2018-04-28T00:33:18.364Z,3.00
2018-04-28T00:35:46.108Z,3.43
2018-04-28T00:38:13.128Z,3.40
2018-04-28T00:40:41.738Z,3.40
2018-04-28T00:43:08.814Z,3.20
2018-04-28T00:45:41.775Z,3.33
2018-04-28T00:48:13.500Z,2.93
2018-04-28T00:50:43.131Z,3.47
2018-04-28T00:53:10.018Z,3.67
2018-04-28T00:55:39.901Z,3.73
2018-04-28T00:58:11.638Z,3.87
2018-04-28T01:00:48.100Z,3.60
2018-04-28T01:03:15.176Z,3.60
2018-04-28T01:05:45.060Z,4.33
2018-04-28T01:08:12.804Z,4.43
2018-04-28T01:10:39.771Z,4.03
2018-04-28T01:13:09.176Z,4.37
2018-04-28T01:15:37.847Z,3.33
2018-04-28T01:18:11.153Z,2.87
2018-04-28T01:20:39.897Z,3.43
2018-04-28T01:23:06.905Z,2.73
2018-04-28T01:28:44.840Z,3.83
2018-04-28T01:31:12.465Z,3.13
2018-04-28T01:33:47.111Z,3.67
2018-04-28T01:36:24.003Z,3.47
2018-04-28T01:39:08.655Z,2.93
2018-04-28T01:41:57.755Z,3.50
2018-04-28T01:44:33.580Z,3.50
2018-04-28T01:47:09.528Z,3.40
2018-04-28T01:52:42.994Z,3.77
2018-04-28T01:55:26.303Z,3.30
2018-04-28T01:57:59.408Z,3.30
2018-04-28T02:00:41.422Z,3.30
2018-04-28T02:03:17.999Z,3.17
2018-04-28T02:05:46.815Z,3.47
2018-04-28T02:08:15.220Z,3.23
2018-04-28T02:10:50.228Z,3.10
2018-04-28T02:16:36.191Z,2.77
2018-04-28T02:22:10.662Z,2.87
2018-04-28T02:24:58.477Z,3.30
2018-04-28T02:30:23.708Z,2.33
2018-04-28T02:32:53.919Z,2.83
2018-04-28T02:35:24.401Z,2.93
2018-04-28T02:41:03.229Z,3.40
2018-04-28T02:43:46.962Z,2.73
2018-04-28T02:46:22.393Z,3.17
2018-04-28T02:51:59.117Z,2.50
2018-04-28T02:54:43.468Z,3.00
2018-04-28T02:57:12.328Z,3.43
2018-04-28T02:59:58.448Z,2.93
2018-04-28T03:02:28.688Z,3.57
2018-04-28T03:04:56.540Z,3.30
2018-04-28T03:07:44.261Z,3.10
2018-04-28T03:13:25.325Z,2.77
2018-04-28T03:15:53.302Z,3.17
2018-04-28T03:18:21.048Z,3.00
2018-04-28T03:20:49.614Z,4.00
2018-04-28T03:23:26.448Z,2.93
2018-04-28T03:25:56.315Z,2.73
2018-04-28T03:28:32.193Z,2.73
2018-04-28T03:31:02.095Z,3.27
2018-04-28T03:33:30.204Z,3.30
2018-04-28T03:35:58.180Z,3.10
2018-04-28T03:41:29.351Z,3.40
2018-04-28T03:44:11.897Z,2.93
2018-04-28T03:46:42.813Z,3.10
2018-04-28T03:49:24.781Z,3.00
2018-04-28T03:51:56.550Z,3.10
2018-04-28T03:57:37.600Z,3.13
2018-04-28T04:00:16.390Z,3.47
2018-04-28T04:02:55.436Z,3.70
2018-04-28T04:05:33.479Z,3.67
2018-04-28T04:08:07.960Z,4.00
2018-04-28T04:10:43.819Z,3.70
2018-04-28T04:16:24.840Z,3.60
2018-04-28T04:22:11.457Z,3.60
2018-04-28T04:24:42.371Z,2.90
2018-04-28T04:27:27.212Z,3.13
2018-04-28T04:30:09.851Z,3.50
2018-04-28T04:32:37.684Z,3.13
2018-04-28T04:35:11.429Z,3.03
2018-04-28T04:37:52.676Z,3.40
2018-04-28T04:43:51.407Z,3.30
2018-04-28T04:46:39.079Z,3.20
2018-04-28T04:49:24.249Z,3.10
2018-04-28T04:55:17.488Z,3.30
2018-04-28T05:01:16.649Z,4.30
2018-04-28T05:07:05.180Z,4.43
2018-04-28T05:13:06.728Z,4.23
2018-04-28T05:15:45.192Z,4.03
2018-04-28T05:18:24.613Z,3.80
2018-04-28T05:20:53.481Z,4.07
2018-04-28T05:26:42.770Z,4.83
2018-04-28T05:38:57.799Z,3.30
2018-04-28T05:44:41.388Z,4.03
2018-04-28T05:47:20.830Z,4.27
2018-04-28T05:49:59.478Z,4.27
2018-04-28T05:52:38.347Z,4.17
2018-04-28T05:55:14.274Z,3.63
2018-04-28T06:01:14.256Z,4.00
2018-04-28T06:03:50.165Z,4.67
2018-04-28T06:06:22.916Z,4.53
2018-04-28T06:12:04.321Z,4.97
2018-04-28T06:14:44.050Z,4.43
2018-04-28T06:17:29.620Z,4.93
2018-04-28T06:20:09.052Z,4.63
2018-04-28T06:22:35.945Z,4.77
2018-04-28T06:25:03.592Z,5.70
2018-04-28T06:27:32.380Z,5.80
2018-04-28T06:30:00.045Z,6.57
2018-04-28T06:32:28.492Z,7.17
2018-04-28T06:34:55.762Z,5.77
2018-04-28T06:37:22.635Z,7.20
2018-04-28T06:39:49.558Z,7.00
2018-04-28T06:42:17.740Z,6.67
2018-04-28T06:44:45.135Z,6.50
2018-04-28T06:47:12.061Z,7.00
2018-04-28T06:49:39.046Z,6.90
2018-04-28T06:52:05.916Z,6.77
2018-04-28T06:54:32.847Z,6.97
2018-04-28T06:57:00.163Z,6.50
2018-04-28T06:59:27.060Z,7.13
2018-04-28T07:01:53.997Z,7.23
2018-04-28T07:04:22.689Z,7.37
2018-04-28T07:06:50.751Z,7.93
2018-04-28T07:09:17.668Z,9.20
2018-04-28T07:11:45.073Z,8.60
2018-04-28T07:14:11.973Z,8.53
2018-04-28T07:16:38.881Z,8.50
2018-04-28T07:19:06.480Z,9.03
2018-04-28T07:21:33.483Z,8.23
2018-04-28T07:24:00.396Z,8.87
2018-04-28T07:26:28.584Z,9.37
2018-04-28T07:28:55.475Z,8.87
2018-04-28T07:31:22.780Z,8.60
2018-04-28T07:33:51.305Z,9.13
2018-04-28T07:36:18.192Z,8.53
2018-04-28T07:38:45.068Z,8.67
2018-04-28T07:41:12.691Z,9.13
2018-04-28T07:43:40.628Z,7.83
2018-04-28T07:46:08.316Z,8.40
2018-04-28T07:48:35.424Z,9.00
2018-04-28T07:51:02.340Z,8.30
2018-04-28T07:53:29.480Z,9.13
2018-04-28T07:55:57.260Z,7.97
2018-04-28T07:58:24.935Z,9.13
2018-04-28T08:00:51.800Z,8.47
2018-04-28T08:03:18.676Z,8.27
2018-04-28T08:05:45.552Z,8.30
2018-04-28T08:08:12.603Z,9.10
2018-04-28T08:10:40.040Z,8.80
2018-04-28T08:13:06.952Z,10.43
2018-04-28T08:15:33.876Z,10.13
2018-04-28T08:18:01.475Z,10.37
2018-04-28T08:20:29.169Z,8.97
2018-04-28T08:22:57.881Z,9.30
2018-04-28T08:25:25.996Z,10.23
2018-04-28T08:27:53.032Z,10.27
2018-04-28T08:30:19.989Z,8.63
2018-04-28T08:32:47.611Z,10.27
2018-04-28T08:35:16.699Z,10.23
2018-04-28T08:37:43.576Z,10.07
2018-04-28T08:40:10.661Z,10.20
2018-04-28T08:42:38.308Z,10.43
2018-04-28T08:45:06.471Z,10.30
2018-04-28T08:47:33.370Z,12.33
2018-04-28T08:50:00.256Z,11.97
2018-04-28T08:52:27.185Z,10.63
2018-04-28T08:54:54.144Z,13.77
2018-04-28T08:57:21.097Z,15.57
2018-04-28T09:00:01.209Z,14.10
2018-04-28T09:02:28.169Z,13.00
2018-04-28T09:04:55.095Z,13.90
2018-04-28T09:07:24.190Z,15.03
2018-04-28T09:09:51.084Z,15.47
2018-04-28T09:12:19.308Z,14.93
2018-04-28T09:14:46.176Z,15.10
2018-04-28T09:17:13.548Z,15.93
2018-04-28T09:19:40.420Z,16.73
2018-04-28T09:22:08.392Z,17.50
2018-04-28T09:24:36.896Z,16.87
2018-04-28T09:27:03.757Z,18.93
2018-04-28T09:29:30.997Z,18.37
2018-04-28T09:31:57.872Z,18.80
2018-04-28T09:34:24.764Z,17.07
2018-04-28T09:36:52.120Z,17.23
2018-04-28T09:39:18.993Z,17.77
2018-04-28T09:41:47.475Z,17.83
2018-04-28T09:44:14.356Z,17.63
2018-04-28T09:46:41.972Z,18.50
2018-04-28T09:49:08.884Z,18.87
2018-04-28T09:51:36.200Z,18.33
2018-04-28T09:54:03.191Z,21.13
2018-04-28T09:56:30.089Z,20.23
2018-04-28T09:58:57.673Z,20.90
2018-04-28T10:01:25.383Z,18.83
2018-04-28T10:03:54.264Z,19.37
2018-04-28T10:06:21.165Z,20.37
2018-04-28T10:08:48.776Z,20.20
2018-04-28T10:11:15.633Z,18.40
2018-04-28T10:13:49.827Z,19.07
2018-04-28T10:16:16.703Z,18.20
2018-04-28T10:18:44.636Z,19.93
2018-04-28T10:21:11.501Z,19.70
2018-04-28T10:23:38.365Z,18.57
2018-04-28T10:26:05.256Z,17.00
2018-04-28T10:28:33.272Z,17.03
2018-04-28T10:31:00.628Z,17.33
2018-04-28T10:33:27.485Z,17.80
2018-04-28T10:35:55.646Z,18.70
2018-04-28T10:38:22.520Z,21.33
2018-04-28T10:40:50.124Z,20.00
2018-04-28T10:43:17.608Z,19.77
2018-04-28T10:45:44.468Z,18.40
2018-04-28T10:48:12.065Z,17.40
2018-04-28T10:50:38.944Z,16.90
2018-04-28T10:53:05.849Z,20.43
2018-04-28T10:55:33.418Z,18.93
2018-04-28T10:58:00.280Z,20.30
2018-04-28T11:00:27.141Z,18.27
2018-04-28T11:02:54.006Z,19.73
2018-04-28T11:05:20.900Z,17.33
2018-04-28T11:07:49.625Z,16.70
2018-04-28T11:10:16.485Z,20.07
2018-04-28T11:12:43.391Z,18.20
2018-04-28T11:15:10.308Z,19.30
2018-04-28T11:17:37.185Z,17.90
2018-04-28T11:20:05.806Z,15.17
2018-04-28T11:22:48.469Z,15.13
2018-04-28T11:25:17.084Z,13.23
2018-04-28T11:27:45.648Z,13.27
2018-04-28T11:30:27.884Z,11.90
2018-04-28T11:33:02.485Z,8.47
2018-04-28T11:35:38.523Z,7.90
2018-04-28T11:38:05.992Z,6.97
2018-04-28T11:43:42.217Z,5.50
2018-04-28T11:46:09.519Z,5.50
2018-04-28T11:48:36.672Z,5.43
2018-04-28T11:51:08.657Z,5.07
2018-04-28T11:53:37.112Z,4.90
2018-04-28T11:56:07.334Z,4.33
2018-04-28T11:58:34.995Z,4.73
2018-04-28T12:01:12.834Z,4.50
2018-04-28T12:03:42.301Z,4.67
2018-04-28T12:06:10.705Z,5.07
2018-04-28T12:08:39.979Z,5.13
2018-04-28T12:11:08.050Z,5.53
2018-04-28T12:13:35.414Z,6.67
2018-04-28T12:16:05.113Z,5.90
2018-04-28T12:21:11.573Z,7.30
2018-04-28T12:23:46.848Z,6.63
2018-04-28T12:26:27.936Z,5.60
2018-04-28T12:28:58.341Z,6.00
2018-04-28T12:31:38.959Z,6.63
2018-04-28T12:34:14.163Z,6.27
2018-04-28T12:36:46.692Z,5.97
2018-04-28T12:39:15.611Z,6.27
2018-04-28T12:47:28.776Z,6.47
2018-04-28T12:50:11.663Z,7.30
2018-04-28T12:52:47.922Z,6.37
2018-04-28T12:55:14.900Z,8.40
2018-04-28T12:57:44.200Z,7.67
2018-04-28T13:00:12.544Z,6.67
2018-04-28T13:02:41.812Z,8.07
2018-04-28T13:05:11.202Z,7.60
2018-04-28T13:07:38.328Z,7.80
2018-04-28T13:12:40.000Z,7.53
2018-04-28T13:15:07.150Z,7.50
2018-04-28T13:17:34.550Z,7.50
2018-04-28T13:20:03.812Z,7.13
2018-04-28T13:22:33.236Z,8.43
2018-04-28T13:25:03.122Z,7.97
2018-04-28T13:27:31.809Z,7.43
2018-04-28T13:30:01.907Z,7.17
2018-04-28T13:32:31.947Z,7.80
2018-04-28T13:35:02.989Z,7.23
2018-04-28T13:37:29.930Z,7.03
2018-04-28T13:39:58.310Z,6.47
2018-04-28T13:42:27.772Z,6.23
2018-04-28T13:44:58.750Z,7.87
2018-04-28T13:47:28.600Z,7.63
2018-04-28T13:49:55.815Z,7.17
2018-04-28T13:52:24.712Z,7.33
2018-04-28T13:54:59.028Z,5.30
2018-04-28T13:57:28.687Z,6.27
2018-04-28T13:59:58.238Z,6.30
2018-04-28T14:02:25.584Z,6.40
2018-04-28T14:04:54.996Z,5.53
2018-04-28T14:07:26.953Z,5.43
2018-04-28T14:09:55.420Z,6.33
2018-04-28T14:12:22.291Z,6.03
2018-04-28T14:14:49.433Z,5.40
2018-04-28T14:17:16.582Z,5.90
2018-04-28T14:19:43.480Z,5.23
2018-04-28T14:22:12.128Z,5.50
2018-04-28T14:24:38.988Z,5.13
2018-04-28T14:27:05.888Z,5.27
2018-04-28T14:29:33.573Z,6.17
2018-04-28T14:32:00.483Z,5.03
2018-04-28T14:34:28.772Z,5.17
2018-04-28T14:36:56.505Z,4.87
2018-04-28T14:39:23.445Z,5.10
2018-04-28T14:41:50.288Z,5.30
2018-04-28T14:44:17.152Z,5.30
2018-04-28T14:46:44.834Z,4.93
2018-04-28T14:49:13.288Z,4.80
2018-04-28T14:51:40.978Z,4.73
2018-04-28T14:54:07.839Z,5.27
2018-04-28T14:56:34.695Z,5.77
2018-04-28T14:59:03.227Z,5.63
2018-04-28T15:01:30.112Z,5.33
2018-04-28T15:03:56.976Z,5.43
2018-04-28T15:06:24.659Z,5.13
2018-04-28T15:08:51.639Z,5.20
2018-04-28T15:11:19.068Z,4.37
2018-04-28T15:13:46.861Z,5.27
2018-04-28T15:16:14.009Z,4.70
2018-04-28T15:18:41.159Z,5.03
2018-04-28T15:21:08.309Z,5.27
2018-04-28T15:23:36.380Z,4.07
2018-04-28T15:26:03.529Z,4.73
2018-04-28T15:28:31.929Z,5.30
2018-04-28T15:30:58.772Z,4.60
2018-04-28T15:33:26.496Z,4.20
2018-04-28T15:35:55.827Z,4.50
2018-04-28T15:38:22.680Z,4.10
2018-04-28T15:40:49.823Z,5.87
2018-04-28T15:43:16.683Z,4.77
2018-04-28T15:45:44.285Z,5.17
2018-04-28T15:48:12.889Z,5.20
2018-04-28T15:50:40.146Z,5.40
2018-04-28T15:53:07.091Z,4.50
2018-04-28T15:55:34.242Z,5.43
2018-04-28T15:58:01.697Z,5.17
2018-04-28T16:00:28.847Z,5.87
2018-04-28T16:02:55.752Z,5.87
2018-04-28T16:05:23.364Z,6.33
2018-04-28T16:07:50.230Z,6.47
2018-04-28T16:10:17.856Z,6.60
2018-04-28T16:12:45.444Z,6.57
2018-04-28T16:15:13.085Z,6.60
2018-04-28T16:17:39.947Z,7.03
2018-04-28T16:20:06.817Z,6.77
2018-04-28T16:22:33.686Z,6.97
2018-04-28T16:25:01.248Z,7.17
2018-04-28T16:27:29.106Z,7.13
2018-04-28T16:29:56.016Z,6.60
2018-04-28T16:32:22.880Z,6.70
2018-04-28T16:34:51.101Z,6.10
2018-04-28T16:37:18.857Z,6.03
2018-04-28T16:39:46.007Z,5.47
2018-04-28T16:42:13.320Z,5.73
2018-04-28T16:44:40.176Z,6.13
2018-04-28T16:47:07.046Z,5.57
2018-04-28T16:49:35.528Z,6.10
2018-04-28T16:52:02.391Z,6.90
2018-04-28T16:54:29.243Z,6.23
2018-04-28T16:56:56.168Z,5.70
2018-04-28T16:59:23.028Z,6.57
2018-04-28T17:01:53.052Z,6.47
2018-04-28T17:04:20.668Z,5.60
2018-04-28T17:06:47.569Z,6.40
2018-04-28T17:09:15.186Z,5.93
2018-04-28T17:11:43.572Z,6.37
2018-04-28T17:14:10.484Z,6.30
2018-04-28T17:16:37.553Z,6.03
2018-04-28T17:19:04.788Z,6.10
2018-04-28T17:21:31.769Z,6.37
2018-04-28T17:23:59.002Z,5.43
2018-04-28T17:26:26.406Z,5.77
2018-04-28T17:28:53.260Z,6.93
2018-04-28T17:31:20.156Z,5.83
2018-04-28T17:33:51.715Z,6.33
2018-04-28T17:36:20.173Z,5.73
2018-04-28T17:38:47.644Z,6.67
2018-04-28T17:41:14.508Z,5.87
2018-04-28T17:43:42.108Z,7.10
2018-04-28T17:46:09.033Z,5.93
2018-04-28T17:48:36.365Z,5.90
2018-04-28T17:51:04.361Z,5.20
2018-04-28T17:53:31.232Z,5.00
2018-04-28T17:55:58.740Z,4.67
2018-04-28T17:58:25.601Z,4.53
2018-04-28T18:00:52.463Z,4.83
2018-04-28T18:03:20.185Z,4.50
2018-04-28T18:05:47.179Z,4.47
2018-04-28T18:08:14.043Z,4.97
2018-04-28T18:10:41.308Z,4.30
2018-04-28T18:13:08.160Z,4.50
2018-04-28T18:15:35.964Z,4.10
2018-04-28T18:18:03.685Z,4.40
2018-04-28T18:20:30.568Z,4.90
2018-04-28T18:22:57.471Z,4.80
2018-04-28T18:25:25.440Z,4.30
2018-04-28T18:27:55.908Z,5.13
2018-04-28T18:30:23.573Z,4.83
2018-04-28T18:32:50.884Z,4.63
2018-04-28T18:35:17.773Z,3.67
2018-04-28T18:37:45.247Z,4.47
2018-04-28T18:40:12.708Z,4.27
2018-04-28T18:42:39.576Z,4.53
2018-04-28T18:45:06.437Z,3.97
2018-04-28T18:47:34.089Z,4.47
2018-04-28T18:50:00.961Z,4.27
2018-04-28T18:52:28.640Z,4.13
2018-04-28T18:54:55.888Z,4.40
2018-04-28T18:57:22.779Z,4.37
2018-04-28T18:59:49.636Z,3.87
2018-04-28T19:02:16.978Z,4.17
2018-04-28T19:04:45.687Z,4.23
2018-04-28T19:07:12.553Z,3.90
2018-04-28T19:09:39.972Z,3.77
2018-04-28T19:12:06.885Z,4.23
2018-04-28T19:14:33.833Z,4.03
2018-04-28T19:17:01.860Z,3.83
2018-04-28T19:19:28.783Z,4.37
2018-04-28T19:21:55.663Z,4.00
2018-04-28T19:24:22.908Z,4.07
2018-04-28T19:26:49.821Z,4.43
2018-04-28T19:29:16.713Z,3.97
2018-04-28T19:31:43.592Z,5.53
2018-04-28T19:34:10.496Z,3.97
2018-04-28T19:36:37.628Z,5.00
2018-04-28T19:39:05.205Z,4.47
2018-04-28T19:41:32.141Z,4.90
2018-04-28T19:43:59.188Z,5.03
2018-04-28T19:46:26.081Z,5.07
2018-04-28T19:48:52.992Z,4.47
2018-04-28T19:51:19.928Z,4.30
2018-04-28T19:53:46.845Z,5.07
2018-04-28T19:56:13.763Z,4.30
2018-04-28T19:58:40.713Z,4.07
2018-04-28T20:01:08.542Z,5.30
2018-04-28T20:03:35.432Z,6.03
2018-04-28T20:06:03.133Z,5.70
2018-04-28T20:08:31.253Z,5.13
2018-04-28T20:10:58.127Z,5.57
2018-04-28T20:13:26.366Z,5.70
2018-04-28T20:15:53.265Z,6.00
2018-04-28T20:18:20.168Z,5.60
2018-04-28T20:20:47.056Z,5.37
2018-04-28T20:23:25.874Z,5.17
2018-04-28T20:25:54.537Z,4.73
2018-04-28T20:28:22.214Z,5.33
2018-04-28T20:30:49.584Z,4.77
2018-04-28T20:33:16.484Z,5.77
2018-04-28T20:35:43.454Z,5.63
2018-04-28T20:38:10.342Z,6.63
2018-04-28T20:40:37.720Z,5.53
2018-04-28T20:43:04.590Z,5.07
2018-04-28T20:45:32.019Z,4.60
2018-04-28T20:47:59.267Z,5.13
2018-04-28T20:50:26.194Z,4.80
2018-04-28T20:52:53.901Z,5.10
2018-04-28T20:55:21.522Z,4.90
2018-04-28T20:57:48.385Z,5.17
2018-04-28T21:00:15.785Z,5.20
2018-04-28T21:02:42.681Z,5.07
2018-04-28T21:05:09.573Z,5.03
2018-04-28T21:07:36.988Z,6.20
2018-04-28T21:10:03.873Z,5.67
2018-04-28T21:12:30.794Z,5.23
2018-04-28T21:14:58.345Z,5.20
2018-04-28T21:17:25.980Z,5.63
2018-04-28T21:19:52.856Z,6.00
2018-04-28T21:22:20.669Z,5.70
2018-04-28T21:24:47.572Z,6.10
2018-04-28T21:27:16.454Z,5.27
2018-04-28T21:29:43.339Z,5.47
2018-04-28T21:32:10.226Z,6.20
2018-04-28T21:34:37.110Z,7.33
2018-04-28T21:37:05.557Z,6.20
2018-04-28T21:39:35.961Z,6.23
2018-04-28T21:42:03.358Z,6.63
2018-04-28T21:44:30.253Z,6.73
2018-04-28T21:46:57.136Z,5.73
2018-04-28T21:49:25.628Z,4.93
2018-04-28T21:51:55.831Z,5.00
2018-04-28T21:54:22.725Z,4.57
2018-04-28T21:56:49.642Z,5.00
2018-04-28T21:59:16.531Z,5.13
2018-04-28T22:01:43.438Z,5.60
2018-04-28T22:04:11.140Z,6.50
2018-04-28T22:06:39.020Z,6.30
2018-04-28T22:09:05.907Z,5.80
2018-04-28T22:11:32.797Z,7.17
2018-04-28T22:13:59.703Z,6.33
2018-04-28T22:16:27.568Z,7.70
2018-04-28T22:18:54.444Z,7.20
2018-04-28T22:21:22.857Z,6.83
2018-04-28T22:23:50.491Z,8.17
2018-04-28T22:26:17.393Z,7.13
2018-04-28T22:28:44.822Z,6.07
2018-04-28T22:31:12.457Z,5.70
2018-04-28T22:33:39.490Z,7.17
2018-04-28T22:36:06.404Z,6.10
2018-04-28T22:38:33.310Z,6.83
2018-04-28T22:41:01.266Z,6.37
2018-04-28T22:43:28.628Z,6.80
2018-04-28T22:45:56.255Z,6.70
2018-04-28T22:48:23.168Z,6.67
2018-04-28T22:50:52.320Z,6.20
2018-04-28T22:53:20.342Z,6.13
2018-04-28T22:55:47.265Z,7.57
2018-04-28T22:58:14.288Z,6.73
2018-04-28T23:00:41.312Z,7.33
2018-04-28T23:03:08.320Z,6.77
2018-04-28T23:05:36.152Z,6.97
2018-04-28T23:08:03.804Z,6.67
2018-04-28T23:10:30.765Z,6.13
2018-04-28T23:12:57.660Z,5.70
2018-04-28T23:15:24.590Z,6.43
2018-04-28T23:17:52.120Z,6.77
2018-04-28T23:20:20.121Z,5.50
2018-04-28T23:22:47.772Z,6.23
2018-04-28T23:25:14.661Z,6.50
2018-04-28T23:27:42.116Z,6.70
2018-04-28T23:30:09.031Z,6.20
2018-04-28T23:32:35.928Z,7.67
2018-04-28T23:35:02.842Z,8.43
2018-04-28T23:37:29.736Z,7.63
2018-04-28T23:39:56.661Z,8.37
2018-04-28T23:42:24.511Z,10.03
2018-04-28T23:44:51.420Z,9.33
2018-04-28T23:47:18.293Z,9.10
2018-04-28T23:49:45.180Z,8.40
2018-04-28T23:52:12.167Z,8.67
2018-04-28T23:54:42.268Z,8.47
2018-04-28T23:57:09.222Z,8.33
2018-04-28T23:59:36.096Z,8.20
